Time;durP1;ratioP1;P1;durP2;ratioP2;P2;SDS_P1;SDS_P2;PMS_P1;PMS_P2;Temp;Humidity;BMP_temperature;BMP_pressure;BME280_temperature;BME280_humidity;BME280_pressure;Samples;Min_cycle;Max_cycle;Signal;HPM_P1;HPM_P2
2023/09/21 00:00:30;;;;;;;0.10;0.10;;;15.10;99.90;;;;;;4978623;28;20184;-83
2023/09/21 00:02:56;;;;;;;0.10;0.10;;;15.00;99.90;;;;;;4977755;28;21029;-83
2023/09/21 00:05:23;;;;;;;0.10;0.10;;;15.00;99.90;;;;;;4980230;28;20204;-83
2023/09/21 00:07:49;;;;;;;0.10;0.10;;;15.10;99.90;;;;;;4979678;28;20210;-82
2023/09/21 00:10:17;;;;;;;0.10;0.10;;;15.20;99.90;;;;;;4981078;28;20258;-82
2023/09/21 00:12:43;;;;;;;0.10;0.10;;;15.30;99.90;;;;;;4996828;28;20267;-82
2023/09/21 00:15:21;;;;;;;0.10;0.10;;;15.40;99.90;;;;;;4971893;28;20334;-82
2023/09/21 00:17:50;;;;;;;0.00;0.00;;;15.40;99.90;;;;;;4979102;28;20219;-82
2023/09/21 00:20:28;;;;;;;0.10;0.10;;;15.40;99.90;;;;;;4977631;28;20603;-83
2023/09/21 00:22:55;;;;;;;0.00;0.00;;;15.30;99.90;;;;;;4980946;28;20191;-83
2023/09/21 00:25:22;;;;;;;0.10;0.10;;;15.20;99.90;;;;;;4979606;28;20181;-83
2023/09/21 00:27:48;;;;;;;0.10;0.10;;;15.20;99.90;;;;;;4977876;28;20217;-83
2023/09/21 00:30:14;;;;;;;0.10;0.10;;;15.20;99.90;;;;;;4978495;28;20184;-82
2023/09/21 00:32:43;;;;;;;0.10;0.10;;;15.30;99.90;;;;;;4978381;28;20188;-82
2023/09/21 00:35:10;;;;;;;0.10;0.10;;;15.20;99.90;;;;;;4977687;28;20238;-82
2023/09/21 00:37:39;;;;;;;0.10;0.10;;;15.20;99.90;;;;;;4980737;28;20267;-82
2023/09/21 00:40:17;;;;;;;0.10;0.10;;;15.20;99.90;;;;;;4979833;28;20190;-83
2023/09/21 00:42:44;;;;;;;0.10;0.10;;;15.20;99.90;;;;;;4988002;28;20199;-83
2023/09/21 00:45:10;;;;;;;0.10;0.10;;;15.20;99.90;;;;;;4977955;28;20184;-82
2023/09/21 00:47:43;;;;;;;0.10;0.10;;;15.20;99.90;;;;;;4996047;28;20208;-83
2023/09/21 00:50:10;;;;;;;0.10;0.10;;;15.30;99.90;;;;;;4980480;28;20264;-83
2023/09/21 00:52:41;;;;;;;0.10;0.10;;;15.40;99.90;;;;;;4978332;28;20188;-83
2023/09/21 00:55:13;;;;;;;0.10;0.10;;;15.40;99.90;;;;;;4978702;28;20227;-83
2023/09/21 00:57:40;;;;;;;0.10;0.10;;;15.20;99.90;;;;;;4982632;28;20204;-84
2023/09/21 01:00:10;;;;;;;0.10;0.10;;;15.00;99.90;;;;;;4982422;28;20185;-83
2023/09/21 01:02:37;;;;;;;0.10;0.10;;;15.00;99.90;;;;;;4981817;28;20206;-83
2023/09/21 01:05:05;;;;;;;0.10;0.10;;;15.00;99.90;;;;;;4982679;28;20180;-83
2023/09/21 01:07:31;;;;;;;0.10;0.10;;;15.00;99.90;;;;;;4980803;28;20293;-83
2023/09/21 01:09:57;;;;;;;0.10;0.10;;;15.20;99.90;;;;;;4983709;28;20278;-82
2023/09/21 01:12:25;;;;;;;0.10;0.10;;;15.20;99.90;;;;;;4982944;28;20679;-83
2023/09/21 01:15:11;;;;;;;0.10;0.10;;;15.20;99.90;;;;;;4981785;28;20183;-83
2023/09/21 01:17:45;;;;;;;0.10;0.10;;;15.20;99.90;;;;;;4981514;28;20215;-83
2023/09/21 01:20:33;;;;;;;0.10;0.10;;;15.10;99.90;;;;;;4983479;28;20287;-83
2023/09/21 01:23:14;;;;;;;0.10;0.10;;;15.00;99.90;;;;;;4981925;28;20188;-82
2023/09/21 01:25:42;;;;;;;0.10;0.10;;;15.00;99.90;;;;;;4981535;28;20262;-83
2023/09/21 01:28:16;;;;;;;0.10;0.10;;;14.90;99.90;;;;;;4981033;28;20203;-83
2023/09/21 01:30:43;;;;;;;0.10;0.10;;;14.80;99.90;;;;;;4990654;28;20216;-83
2023/09/21 01:33:11;;;;;;;0.10;0.10;;;14.90;99.90;;;;;;4982257;28;20203;-83
2023/09/21 01:35:37;;;;;;;0.10;0.10;;;14.90;99.90;;;;;;4980933;28;20212;-83
2023/09/21 01:38:06;;;;;;;0.10;0.10;;;14.90;99.90;;;;;;4981548;28;20566;-83
2023/09/21 01:40:36;;;;;;;0.10;0.10;;;14.80;99.90;;;;;;4992551;28;20244;-82
2023/09/21 01:43:06;;;;;;;0.10;0.10;;;14.70;99.90;;;;;;4982372;28;20242;-82
2023/09/21 01:45:32;;;;;;;0.10;0.10;;;14.70;99.90;;;;;;4998443;28;20196;-83
2023/09/21 01:47:59;;;;;;;0.10;0.10;;;14.70;99.90;;;;;;4980392;28;20211;-83
2023/09/21 01:50:25;;;;;;;0.10;0.10;;;14.70;99.90;;;;;;4981584;28;20671;-82
2023/09/21 01:52:50;;;;;;;0.10;0.10;;;14.70;99.90;;;;;;4981648;28;20184;-83
2023/09/21 01:55:17;;;;;;;0.10;0.10;;;14.70;99.90;;;;;;4982925;28;20593;-82
2023/09/21 01:57:43;;;;;;;0.10;0.10;;;14.70;99.90;;;;;;4981132;28;20227;-82
2023/09/21 02:00:25;;;;;;;0.00;0.00;;;14.60;99.90;;;;;;4981939;28;20183;-83
2023/09/21 02:02:51;;;;;;;0.10;0.10;;;14.60;99.90;;;;;;4980917;28;20331;-82
2023/09/21 02:05:17;;;;;;;0.10;0.10;;;14.50;99.90;;;;;;4982334;28;20186;-83
2023/09/21 02:07:43;;;;;;;0.10;0.10;;;14.40;99.90;;;;;;4982603;28;20207;-82
2023/09/21 02:10:11;;;;;;;0.10;0.10;;;14.40;99.90;;;;;;4981436;28;20196;-82
2023/09/21 02:12:38;;;;;;;0.10;0.10;;;14.50;99.90;;;;;;4983920;28;20190;-83
2023/09/21 02:15:10;;;;;;;0.10;0.10;;;14.50;99.90;;;;;;4981729;28;20183;-82
2023/09/21 02:17:40;;;;;;;0.10;0.10;;;14.50;99.90;;;;;;4981897;28;20281;-83
2023/09/21 02:20:14;;;;;;;0.10;0.10;;;14.50;99.90;;;;;;4980703;28;20202;-82
2023/09/21 02:22:43;;;;;;;0.10;0.10;;;14.50;99.90;;;;;;4982862;28;20183;-83
2023/09/21 02:25:10;;;;;;;0.10;0.10;;;14.50;99.90;;;;;;4978779;28;20187;-82
2023/09/21 02:27:47;;;;;;;0.10;0.10;;;14.50;99.90;;;;;;4981024;28;20569;-83
2023/09/21 02:30:14;;;;;;;0.10;0.10;;;14.70;99.90;;;;;;4980914;28;20668;-82
2023/09/21 02:32:45;;;;;;;0.10;0.10;;;14.70;99.90;;;;;;4982096;28;20200;-82
2023/09/21 02:35:16;;;;;;;0.10;0.10;;;14.70;99.90;;;;;;4980918;28;20184;-82
2023/09/21 02:37:46;;;;;;;0.10;0.10;;;14.80;99.90;;;;;;4982306;28;20231;-82
2023/09/21 02:40:14;;;;;;;0.10;0.10;;;14.80;99.90;;;;;;4981126;28;20179;-82
2023/09/21 02:42:41;;;;;;;0.10;0.10;;;14.60;99.90;;;;;;4980633;28;20186;-83
2023/09/21 02:45:10;;;;;;;0.10;0.10;;;14.50;99.90;;;;;;4982622;28;20185;-83
2023/09/21 02:47:36;;;;;;;0.10;0.10;;;14.40;99.90;;;;;;4981080;28;20219;-82
2023/09/21 02:50:14;;;;;;;0.10;0.10;;;14.40;99.90;;;;;;4981105;28;20191;-83
2023/09/21 02:52:47;;;;;;;0.10;0.10;;;14.30;99.90;;;;;;4980903;28;20268;-82
2023/09/21 02:55:16;;;;;;;0.10;0.10;;;14.30;99.90;;;;;;4981240;28;20222;-83
2023/09/21 02:57:44;;;;;;;0.10;0.10;;;14.30;99.90;;;;;;4979436;28;20211;-83
2023/09/21 03:00:25;;;;;;;0.10;0.10;;;14.50;99.90;;;;;;4982530;28;20751;-82
2023/09/21 03:02:51;;;;;;;0.10;0.10;;;14.60;99.90;;;;;;4980316;28;20286;-83
2023/09/21 03:05:17;;;;;;;0.10;0.10;;;14.80;99.90;;;;;;4980181;28;20718;-82
2023/09/21 03:07:44;;;;;;;0.10;0.10;;;14.60;99.90;;;;;;4980889;28;20294;-83
2023/09/21 03:10:11;;;;;;;0.10;0.10;;;14.60;99.90;;;;;;4981542;28;20191;-84
2023/09/21 03:12:38;;;;;;;0.10;0.10;;;14.40;99.90;;;;;;4981557;28;20722;-83
2023/09/21 03:15:08;;;;;;;0.10;0.10;;;14.40;99.90;;;;;;4997596;28;20198;-83
2023/09/21 03:17:38;;;;;;;0.10;0.10;;;14.30;99.90;;;;;;4978746;28;20307;-83
2023/09/21 03:20:09;;;;;;;0.10;0.10;;;14.20;99.90;;;;;;4980988;28;20667;-83
2023/09/21 03:22:35;;;;;;;0.10;0.10;;;14.20;99.90;;;;;;4988989;28;20222;-82
2023/09/21 03:25:01;;;;;;;0.10;0.10;;;14.20;99.90;;;;;;4996119;28;20216;-83
2023/09/21 03:27:26;;;;;;;0.10;0.10;;;14.20;99.90;;;;;;4979956;28;20202;-83
2023/09/21 03:29:53;;;;;;;0.10;0.10;;;14.20;99.90;;;;;;4978256;28;20202;-83
2023/09/21 03:32:18;;;;;;;0.10;0.10;;;14.20;99.90;;;;;;4979506;28;20217;-82
2023/09/21 03:34:45;;;;;;;0.10;0.10;;;14.20;99.90;;;;;;4982150;28;20196;-82
2023/09/21 03:37:12;;;;;;;0.10;0.10;;;14.20;99.90;;;;;;4978821;28;20218;-83
2023/09/21 03:39:37;;;;;;;0.10;0.10;;;14.20;99.90;;;;;;4979805;28;20194;-83
2023/09/21 03:42:04;;;;;;;0.10;0.10;;;14.20;99.90;;;;;;4979307;28;20206;-83
2023/09/21 03:44:30;;;;;;;0.10;0.10;;;14.30;99.90;;;;;;4979416;28;20195;-82
2023/09/21 03:46:55;;;;;;;0.10;0.10;;;14.40;99.90;;;;;;4978937;28;21201;-82
2023/09/21 03:49:21;;;;;;;0.10;0.10;;;14.40;99.90;;;;;;4978430;28;20648;-82
2023/09/21 03:51:47;;;;;;;0.10;0.10;;;14.40;99.90;;;;;;4978951;28;20270;-83
2023/09/21 03:54:16;;;;;;;0.10;0.10;;;14.40;99.90;;;;;;4979874;28;20593;-83
2023/09/21 03:56:42;;;;;;;0.10;0.10;;;14.40;99.90;;;;;;4978510;28;20588;-83
2023/09/21 03:59:08;;;;;;;0.10;0.10;;;14.40;99.90;;;;;;4978418;28;20183;-82
2023/09/21 04:01:37;;;;;;;0.10;0.10;;;14.30;99.90;;;;;;4978480;28;20199;-83
2023/09/21 04:04:08;;;;;;;0.10;0.10;;;14.50;99.90;;;;;;4979324;28;20194;-83
2023/09/21 04:06:34;;;;;;;0.10;0.10;;;14.60;99.90;;;;;;4978305;28;20758;-83
2023/09/21 04:09:00;;;;;;;0.10;0.10;;;14.60;99.90;;;;;;4980159;28;20195;-83
2023/09/21 04:11:29;;;;;;;0.10;0.10;;;14.70;99.90;;;;;;4980283;28;20210;-83
2023/09/21 04:13:55;;;;;;;0.10;0.10;;;14.90;99.90;;;;;;4977805;28;20211;-83
2023/09/21 04:16:20;;;;;;;0.10;0.10;;;14.90;99.90;;;;;;4978497;28;20212;-82
2023/09/21 04:18:46;;;;;;;0.10;0.10;;;15.00;99.90;;;;;;4981313;28;20187;-82
2023/09/21 04:21:11;;;;;;;0.10;0.10;;;15.00;99.90;;;;;;4978083;28;20621;-83
2023/09/21 04:23:37;;;;;;;0.10;0.10;;;15.00;99.90;;;;;;4979446;28;20192;-83
2023/09/21 04:26:02;;;;;;;0.10;0.10;;;15.20;99.90;;;;;;4979365;28;20194;-83
2023/09/21 04:28:28;;;;;;;0.10;0.10;;;15.30;99.90;;;;;;4974909;28;20238;-82
2023/09/21 04:30:53;;;;;;;0.10;0.10;;;15.30;99.90;;;;;;4978328;28;20241;-82
2023/09/21 04:33:19;;;;;;;0.10;0.10;;;15.40;99.90;;;;;;4979263;28;20176;-83
2023/09/21 04:35:44;;;;;;;0.10;0.10;;;15.50;99.90;;;;;;4976584;28;20223;-83
2023/09/21 04:38:10;;;;;;;0.10;0.10;;;15.20;99.90;;;;;;4977535;28;20208;-83
2023/09/21 04:40:36;;;;;;;0.10;0.10;;;15.20;99.90;;;;;;4980945;28;20198;-83
2023/09/21 04:43:01;;;;;;;0.10;0.10;;;15.20;99.90;;;;;;4976606;28;20195;-83
2023/09/21 04:45:27;;;;;;;0.10;0.10;;;15.10;99.90;;;;;;4977816;28;20512;-83
2023/09/21 04:48:00;;;;;;;0.10;0.10;;;15.20;99.90;;;;;;4975453;28;20214;-83
2023/09/21 04:50:26;;;;;;;0.10;0.10;;;15.10;99.90;;;;;;4977273;28;20202;-84
2023/09/21 04:52:51;;;;;;;0.10;0.10;;;15.20;99.90;;;;;;4995976;28;20746;-83
2023/09/21 04:55:18;;;;;;;0.10;0.10;;;15.20;99.90;;;;;;4977520;28;20257;-83
2023/09/21 04:57:45;;;;;;;0.10;0.10;;;15.20;99.90;;;;;;4979308;28;20212;-83
2023/09/21 05:00:13;;;;;;;0.10;0.10;;;15.20;99.90;;;;;;4977976;28;20192;-82
2023/09/21 05:02:39;;;;;;;0.10;0.10;;;15.20;99.90;;;;;;4976483;28;20258;-83
2023/09/21 05:05:05;;;;;;;0.10;0.10;;;15.20;99.90;;;;;;4977711;28;20194;-81
2023/09/21 05:07:31;;;;;;;0.10;0.10;;;15.30;99.90;;;;;;4978037;28;20204;-82
2023/09/21 05:09:57;;;;;;;0.10;0.10;;;15.40;99.90;;;;;;4979678;28;20695;-82
2023/09/21 05:12:22;;;;;;;0.10;0.10;;;15.40;99.90;;;;;;4976908;28;20215;-82
2023/09/21 05:14:50;;;;;;;0.10;0.10;;;15.40;99.90;;;;;;4977281;28;20184;-85
2023/09/21 05:17:16;;;;;;;0.10;0.10;;;15.50;99.90;;;;;;4973772;28;20671;-83
2023/09/21 05:19:42;;;;;;;0.10;0.10;;;15.60;99.90;;;;;;4978711;28;20207;-83
2023/09/21 05:22:09;;;;;;;0.10;0.10;;;15.60;99.90;;;;;;4975405;28;20189;-82
2023/09/21 05:24:36;;;;;;;0.10;0.10;;;15.70;99.90;;;;;;4977596;28;20279;-86
2023/09/21 05:27:02;;;;;;;0.10;0.10;;;15.80;99.90;;;;;;4976524;28;20219;-83
2023/09/21 05:29:28;;;;;;;0.10;0.10;;;15.60;99.90;;;;;;4974438;28;20197;-84
2023/09/21 05:31:54;;;;;;;0.10;0.10;;;15.70;99.90;;;;;;4978672;28;20544;-84
2023/09/21 05:34:20;;;;;;;0.10;0.10;;;15.60;99.90;;;;;;4980055;28;20746;-82
2023/09/21 05:36:47;;;;;;;0.10;0.10;;;15.50;99.90;;;;;;4975028;28;20342;-82
2023/09/21 05:39:16;;;;;;;0.10;0.10;;;15.40;99.90;;;;;;4977807;28;20183;-82
2023/09/21 05:41:43;;;;;;;0.10;0.10;;;15.30;99.90;;;;;;4978899;28;20184;-83
2023/09/21 05:44:09;;;;;;;0.10;0.10;;;15.30;99.90;;;;;;4979280;28;20307;-82
2023/09/21 05:46:35;;;;;;;0.10;0.10;;;15.30;99.90;;;;;;4981901;28;20211;-82
2023/09/21 05:49:00;;;;;;;0.10;0.10;;;15.40;99.90;;;;;;4980316;28;20200;-83
2023/09/21 05:51:26;;;;;;;0.10;0.10;;;15.30;99.90;;;;;;4982055;28;20210;-85
2023/09/21 05:53:52;;;;;;;0.10;0.10;;;15.50;99.90;;;;;;4981050;28;20176;-84
2023/09/21 05:56:19;;;;;;;0.10;0.10;;;15.70;99.90;;;;;;4977943;28;20243;-83
2023/09/21 05:58:46;;;;;;;0.10;0.10;;;15.90;99.90;;;;;;4981520;28;20271;-83
2023/09/21 06:01:13;;;;;;;0.10;0.10;;;16.10;99.90;;;;;;4995994;28;20600;-83
2023/09/21 06:03:39;;;;;;;0.10;0.10;;;16.20;99.90;;;;;;4981458;28;20215;-83
2023/09/21 06:06:07;;;;;;;0.10;0.10;;;16.20;99.90;;;;;;4980209;28;20185;-84
2023/09/21 06:08:34;;;;;;;0.10;0.10;;;16.20;99.90;;;;;;4981182;28;20189;-83
2023/09/21 06:11:02;;;;;;;0.10;0.10;;;16.30;99.90;;;;;;4979998;28;20250;-83
2023/09/21 06:13:28;;;;;;;0.10;0.10;;;16.20;99.90;;;;;;4979813;28;20185;-83
2023/09/21 06:15:54;;;;;;;0.10;0.10;;;16.30;99.90;;;;;;4977635;28;21961;-82
2023/09/21 06:18:21;;;;;;;0.10;0.10;;;16.30;99.90;;;;;;4980645;28;20203;-81
2023/09/21 06:20:46;;;;;;;0.10;0.10;;;16.40;99.90;;;;;;4986811;28;20196;-80
2023/09/21 06:23:12;;;;;;;0.10;0.10;;;16.40;99.90;;;;;;4984685;28;20184;-80
2023/09/21 06:25:37;;;;;;;0.10;0.10;;;16.50;99.90;;;;;;4978868;28;20235;-79
2023/09/21 06:28:03;;;;;;;0.10;0.10;;;16.50;99.90;;;;;;4979187;28;20207;-80
2023/09/21 06:30:29;;;;;;;0.10;0.10;;;16.30;99.90;;;;;;4980242;28;20196;-80
2023/09/21 06:32:55;;;;;;;0.10;0.10;;;16.40;99.90;;;;;;4980847;28;20188;-83
2023/09/21 06:35:24;;;;;;;0.10;0.10;;;16.70;99.90;;;;;;4978085;28;20687;-83
2023/09/21 06:37:56;;;;;;;0.10;0.10;;;16.70;99.90;;;;;;4980242;28;20293;-83
2023/09/21 06:40:23;;;;;;;0.10;0.10;;;16.70;99.90;;;;;;4987860;28;20279;-83
2023/09/21 06:42:50;;;;;;;0.10;0.10;;;16.80;99.90;;;;;;4977719;28;20181;-83
2023/09/21 06:45:15;;;;;;;0.10;0.10;;;17.00;99.90;;;;;;4980627;28;20184;-83
2023/09/21 06:47:42;;;;;;;0.10;0.10;;;17.20;99.90;;;;;;4980848;28;20214;-83
2023/09/21 06:50:10;;;;;;;0.10;0.10;;;17.10;99.90;;;;;;4978177;28;20187;-83
2023/09/21 06:52:37;;;;;;;0.10;0.10;;;17.30;99.90;;;;;;4979212;28;20212;-83
2023/09/21 06:55:04;;;;;;;0.10;0.10;;;17.30;99.90;;;;;;4978643;28;20199;-83
2023/09/21 06:57:31;;;;;;;0.10;0.10;;;17.30;99.90;;;;;;4977217;28;20208;-83
2023/09/21 06:59:57;;;;;;;0.10;0.10;;;17.10;99.90;;;;;;4980373;28;20655;-83
2023/09/21 07:02:24;;;;;;;0.10;0.10;;;17.40;99.90;;;;;;4979570;28;20194;-84
2023/09/21 07:04:50;;;;;;;0.10;0.10;;;17.50;99.90;;;;;;4975124;28;20188;-84
2023/09/21 07:07:16;;;;;;;0.10;0.10;;;17.70;99.90;;;;;;4977271;28;20262;-78
2023/09/21 07:09:44;;;;;;;0.10;0.10;;;18.00;99.90;;;;;;4980392;28;20189;-79
2023/09/21 07:12:11;;;;;;;0.10;0.10;;;18.20;99.90;;;;;;4978696;28;20204;-79
2023/09/21 07:14:36;;;;;;;0.10;0.10;;;18.40;99.90;;;;;;4977099;28;20279;-79
2023/09/21 07:17:05;;;;;;;0.10;0.10;;;18.10;99.90;;;;;;4978353;28;21142;-79
2023/09/21 07:19:31;;;;;;;0.10;0.10;;;18.00;99.90;;;;;;4975708;28;20606;-80
2023/09/21 07:21:57;;;;;;;0.10;0.10;;;18.00;99.90;;;;;;4973768;28;20185;-80
2023/09/21 07:24:23;;;;;;;0.10;0.10;;;18.20;99.90;;;;;;4976820;28;20218;-79
2023/09/21 07:26:49;;;;;;;0.10;0.10;;;18.00;99.90;;;;;;4977934;28;20257;-79
2023/09/21 07:29:15;;;;;;;0.10;0.10;;;17.80;99.90;;;;;;4979813;28;20184;-79
2023/09/21 07:31:40;;;;;;;0.10;0.10;;;17.90;99.90;;;;;;4977672;28;20935;-80
2023/09/21 07:34:06;;;;;;;0.10;0.10;;;17.80;99.90;;;;;;4979886;28;20243;-79
2023/09/21 07:36:35;;;;;;;0.10;0.10;;;17.80;99.90;;;;;;4978867;28;20196;-79
2023/09/21 07:39:00;;;;;;;0.10;0.10;;;17.90;99.90;;;;;;4980568;28;20178;-80
2023/09/21 07:41:26;;;;;;;0.10;0.10;;;18.00;99.90;;;;;;4980262;28;20190;-79
2023/09/21 07:43:51;;;;;;;0.10;0.10;;;18.20;99.90;;;;;;4979391;28;20191;-79
2023/09/21 07:46:17;;;;;;;0.10;0.10;;;18.30;99.90;;;;;;4980768;28;20194;-80
2023/09/21 07:48:42;;;;;;;0.10;0.10;;;18.30;99.90;;;;;;4976795;28;20190;-79
2023/09/21 07:51:08;;;;;;;0.10;0.10;;;18.30;99.90;;;;;;4981628;28;20203;-80
2023/09/21 07:53:40;;;;;;;0.10;0.10;;;18.20;99.90;;;;;;4977939;28;20176;-80
2023/09/21 07:56:06;;;;;;;0.10;0.10;;;18.00;99.90;;;;;;4980188;28;20209;-80
2023/09/21 07:58:31;;;;;;;0.10;0.10;;;17.90;99.90;;;;;;4979150;28;20630;-79
2023/09/21 08:00:57;;;;;;;0.10;0.10;;;18.00;99.90;;;;;;4981053;28;20277;-79
2023/09/21 08:03:26;;;;;;;0.10;0.10;;;17.80;99.90;;;;;;4979421;28;20191;-80
2023/09/21 08:05:55;;;;;;;0.10;0.10;;;17.90;99.90;;;;;;4978802;28;21132;-79
2023/09/21 08:08:22;;;;;;;0.10;0.10;;;18.20;99.90;;;;;;4977655;28;20240;-80
2023/09/21 08:10:50;;;;;;;0.10;0.10;;;18.20;99.90;;;;;;4980807;28;20200;-79
2023/09/21 08:13:16;;;;;;;0.10;0.10;;;18.30;99.90;;;;;;4978356;28;20184;-80
2023/09/21 08:15:42;;;;;;;0.10;0.10;;;18.20;99.90;;;;;;4980486;28;20176;-79
2023/09/21 08:18:10;;;;;;;0.10;0.10;;;18.20;99.90;;;;;;4979963;28;20288;-80
2023/09/21 08:20:39;;;;;;;0.10;0.10;;;18.50;99.90;;;;;;4977956;28;20284;-80
2023/09/21 08:23:06;;;;;;;0.10;0.10;;;18.60;99.90;;;;;;4977849;28;20207;-80
2023/09/21 08:25:33;;;;;;;0.10;0.10;;;18.80;99.90;;;;;;4977742;28;20249;-79
2023/09/21 08:27:59;;;;;;;0.10;0.10;;;19.10;99.90;;;;;;4978410;28;20734;-80
2023/09/21 08:30:25;;;;;;;0.10;0.10;;;19.20;99.90;;;;;;4978200;28;20763;-80
2023/09/21 08:32:51;;;;;;;0.10;0.10;;;19.30;99.90;;;;;;4977145;28;20259;-80
2023/09/21 08:35:16;;;;;;;0.10;0.10;;;19.60;99.90;;;;;;4979967;28;20187;-79
2023/09/21 08:37:42;;;;;;;0.10;0.10;;;19.70;99.90;;;;;;4978016;28;20728;-79
2023/09/21 08:40:08;;;;;;;0.10;0.10;;;19.30;99.90;;;;;;4976866;28;20187;-79
2023/09/21 08:42:36;;;;;;;0.10;0.10;;;19.30;99.90;;;;;;4980193;28;20200;-80
2023/09/21 08:45:08;;;;;;;0.10;0.10;;;19.40;99.90;;;;;;4980157;28;20271;-80
2023/09/21 08:47:33;;;;;;;0.10;0.10;;;19.20;99.90;;;;;;4977416;28;20252;-80
2023/09/21 08:50:02;;;;;;;0.10;0.10;;;19.10;99.90;;;;;;4979628;28;20218;-79
2023/09/21 08:52:32;;;;;;;0.10;0.10;;;19.30;99.90;;;;;;4979012;28;20230;-80
2023/09/21 08:54:58;;;;;;;0.10;0.10;;;19.50;99.90;;;;;;4977932;28;20279;-80
2023/09/21 08:57:24;;;;;;;0.10;0.10;;;19.30;99.90;;;;;;4977898;28;20298;-79
2023/09/21 08:59:53;;;;;;;0.10;0.10;;;19.20;99.90;;;;;;4977431;28;20648;-80
2023/09/21 09:02:19;;;;;;;0.10;0.10;;;19.40;99.90;;;;;;4978868;28;20234;-80
2023/09/21 09:04:45;;;;;;;0.10;0.10;;;19.60;99.90;;;;;;4976789;28;20648;-79
2023/09/21 09:07:12;;;;;;;0.10;0.10;;;19.60;99.90;;;;;;4977842;28;20208;-80
2023/09/21 09:09:39;;;;;;;0.10;0.10;;;20.20;99.90;;;;;;4978993;28;20189;-80
2023/09/21 09:12:25;;;;;;;0.10;0.10;;;20.30;99.90;;;;;;4976722;28;20203;-80
2023/09/21 09:14:51;;;;;;;0.10;0.10;;;21.10;99.90;;;;;;4978820;28;20234;-80
2023/09/21 09:17:18;;;;;;;0.50;0.50;;;21.40;99.90;;;;;;4979127;28;20204;-80
2023/09/21 09:19:46;;;;;;;0.10;0.10;;;21.00;99.90;;;;;;4980803;28;20239;-80
2023/09/21 09:22:16;;;;;;;0.10;0.10;;;21.50;99.90;;;;;;4980509;28;20180;-81
2023/09/21 09:24:46;;;;;;;0.10;0.10;;;22.00;99.90;;;;;;4983697;28;20184;-79
2023/09/21 09:27:11;;;;;;;0.10;0.10;;;22.30;99.90;;;;;;4979619;28;20215;-79
2023/09/21 09:29:48;;;;;;;0.10;0.10;;;22.00;99.90;;;;;;4980909;28;20555;-79
2023/09/21 09:32:15;;;;;;;0.10;0.10;;;22.40;99.90;;;;;;4981690;28;20199;-80
2023/09/21 09:34:41;;;;;;;0.10;0.10;;;23.30;99.90;;;;;;4981733;28;20197;-80
2023/09/21 09:37:12;;;;;;;0.10;0.10;;;22.80;99.90;;;;;;4981481;28;20224;-80
2023/09/21 09:39:38;;;;;;;0.10;0.10;;;23.20;99.90;;;;;;4980551;28;20215;-80
2023/09/21 09:42:06;;;;;;;0.10;0.10;;;23.40;99.90;;;;;;4982161;28;20219;-80
2023/09/21 09:44:34;;;;;;;0.10;0.10;;;22.70;99.90;;;;;;4979989;28;20623;-80
2023/09/21 09:47:03;;;;;;;0.10;0.10;;;23.10;99.90;;;;;;4979103;28;20736;-79
2023/09/21 09:49:30;;;;;;;0.10;0.10;;;22.50;99.90;;;;;;4980846;28;20184;-79
2023/09/21 09:51:57;;;;;;;0.10;0.10;;;22.80;99.90;;;;;;4974216;28;20218;-81
2023/09/21 09:54:26;;;;;;;0.10;0.10;;;23.10;99.90;;;;;;4981012;28;20263;-81
2023/09/21 09:56:55;;;;;;;0.10;0.10;;;23.00;99.90;;;;;;4979001;28;20561;-80
2023/09/21 09:59:23;;;;;;;0.10;0.10;;;23.00;99.90;;;;;;4986561;28;20714;-80
2023/09/21 10:01:49;;;;;;;0.10;0.10;;;22.30;99.90;;;;;;4991931;28;20189;-81
2023/09/21 10:04:18;;;;;;;0.10;0.10;;;21.80;99.90;;;;;;4997009;28;20272;-79
2023/09/21 10:06:46;;;;;;;0.10;0.10;;;21.90;99.90;;;;;;4985591;28;20250;-80
2023/09/21 10:09:13;;;;;;;0.10;0.10;;;21.60;99.90;;;;;;4986405;28;20192;-81
2023/09/21 10:11:46;;;;;;;0.10;0.10;;;22.00;99.90;;;;;;4987699;28;20215;-81
2023/09/21 10:14:17;;;;;;;0.10;0.10;;;22.40;99.90;;;;;;4989974;28;20252;-80
2023/09/21 10:16:53;;;;;;;0.10;0.10;;;22.40;99.90;;;;;;4983416;28;20212;-80
2023/09/21 10:19:26;;;;;;;0.10;0.10;;;22.80;99.90;;;;;;4985922;28;20172;-81
2023/09/21 10:22:03;;;;;;;0.10;0.10;;;23.00;99.90;;;;;;4981161;28;20200;-81
2023/09/21 10:24:30;;;;;;;0.10;0.10;;;23.30;99.90;;;;;;4979471;28;20207;-81
2023/09/21 10:27:03;;;;;;;0.10;0.10;;;23.50;99.90;;;;;;4985659;28;20212;-82
2023/09/21 10:29:33;;;;;;;0.10;0.10;;;23.20;99.90;;;;;;4979430;28;20235;-82
2023/09/21 10:32:06;;;;;;;0.10;0.10;;;23.10;99.90;;;;;;4979903;28;20231;-81
2023/09/21 10:34:32;;;;;;;0.10;0.10;;;23.50;99.90;;;;;;4979647;28;21019;-81
2023/09/21 10:37:05;;;;;;;0.10;0.10;;;23.10;99.90;;;;;;4981647;28;20339;-80
2023/09/21 10:39:31;;;;;;;0.10;0.10;;;23.60;99.90;;;;;;4975441;28;21082;-81
2023/09/21 10:42:03;;;;;;;0.10;0.10;;;23.80;99.90;;;;;;4981007;28;20271;-81
2023/09/21 10:44:55;;;;;;;0.10;0.10;;;24.00;99.90;;;;;;4983735;28;20180;-81
2023/09/21 10:47:47;;;;;;;0.10;0.10;;;24.30;99.90;;;;;;4980397;28;20204;-81
2023/09/21 10:50:14;;;;;;;0.10;0.10;;;24.50;99.90;;;;;;4980615;28;20235;-81
2023/09/21 10:52:45;;;;;;;0.10;0.10;;;24.50;99.90;;;;;;4977250;28;20281;-82
2023/09/21 10:55:13;;;;;;;0.10;0.10;;;24.70;99.90;;;;;;4980726;28;20188;-81
2023/09/21 10:57:41;;;;;;;0.10;0.10;;;24.90;99.90;;;;;;4982280;28;20200;-82
2023/09/21 11:00:08;;;;;;;0.10;0.10;;;24.80;99.90;;;;;;4981993;28;20271;-80
2023/09/21 11:02:40;;;;;;;0.10;0.10;;;24.60;99.90;;;;;;4980532;28;20192;-81
2023/09/21 11:05:10;;;;;;;0.10;0.10;;;24.60;99.90;;;;;;4976933;28;20199;-82
2023/09/21 11:07:36;;;;;;;0.10;0.10;;;24.60;99.90;;;;;;4985235;28;20211;-82
2023/09/21 11:10:06;;;;;;;0.10;0.10;;;24.40;99.90;;;;;;4981667;28;20176;-81
2023/09/21 11:12:32;;;;;;;0.10;0.10;;;24.40;99.90;;;;;;4976617;28;20200;-82
2023/09/21 11:14:59;;;;;;;0.10;0.10;;;23.50;99.90;;;;;;4976309;28;21423;-81
2023/09/21 11:17:24;;;;;;;0.10;0.10;;;23.40;99.90;;;;;;4980270;28;20209;-82
2023/09/21 11:19:50;;;;;;;0.10;0.10;;;22.90;99.90;;;;;;4980225;28;20820;-81
2023/09/21 11:22:16;;;;;;;0.10;0.10;;;23.30;99.90;;;;;;4979569;28;20270;-83
2023/09/21 11:24:42;;;;;;;0.10;0.10;;;23.10;99.90;;;;;;4976823;28;20184;-81
2023/09/21 11:27:09;;;;;;;0.10;0.10;;;23.00;99.90;;;;;;4978977;28;20203;-82
2023/09/21 11:29:40;;;;;;;0.57;0.57;;;22.90;99.90;;;;;;4975573;28;20196;-81
2023/09/21 11:32:07;;;;;;;0.10;0.10;;;22.80;99.90;;;;;;4971734;28;20207;-82
2023/09/21 11:34:39;;;;;;;0.10;0.10;;;23.20;99.90;;;;;;4982209;28;20286;-82
2023/09/21 11:37:07;;;;;;;0.10;0.10;;;23.40;99.90;;;;;;4977769;28;20211;-82
2023/09/21 11:39:33;;;;;;;0.10;0.10;;;22.90;99.90;;;;;;4981247;28;20192;-81
2023/09/21 11:41:59;;;;;;;0.10;0.10;;;23.10;99.90;;;;;;4981071;28;20545;-81
2023/09/21 11:44:28;;;;;;;0.10;0.10;;;23.10;99.90;;;;;;4981636;28;20191;-81
2023/09/21 11:46:57;;;;;;;0.10;0.10;;;22.90;99.90;;;;;;4980361;28;20250;-82
2023/09/21 11:49:43;;;;;;;0.10;0.10;;;23.30;99.90;;;;;;4981612;28;20207;-82
2023/09/21 11:52:13;;;;;;;0.10;0.10;;;23.40;99.90;;;;;;4981654;28;20246;-81
2023/09/21 11:54:39;;;;;;;0.10;0.10;;;23.70;99.90;;;;;;4977600;28;20243;-82
2023/09/21 11:57:06;;;;;;;0.10;0.10;;;24.00;99.90;;;;;;4976230;28;20204;-82
2023/09/21 11:59:39;;;;;;;0.10;0.10;;;24.20;99.90;;;;;;4976562;28;20208;-82
2023/09/21 12:02:09;;;;;;;0.10;0.10;;;24.20;99.90;;;;;;4970390;28;20481;-83
2023/09/21 12:04:39;;;;;;;0.10;0.10;;;24.40;99.90;;;;;;4993012;28;20195;-83
2023/09/21 12:07:09;;;;;;;0.10;0.10;;;24.30;99.90;;;;;;4984858;28;20243;-82
2023/09/21 12:09:40;;;;;;;0.10;0.10;;;24.20;99.90;;;;;;4980793;28;20596;-82
2023/09/21 12:12:12;;;;;;;0.10;0.10;;;24.10;99.90;;;;;;4980297;28;20208;-83
2023/09/21 12:14:40;;;;;;;0.10;0.10;;;24.10;99.90;;;;;;4978476;28;20180;-83
2023/09/21 12:17:10;;;;;;;0.10;0.10;;;24.40;99.90;;;;;;4978614;28;20215;-83
2023/09/21 12:19:37;;;;;;;0.10;0.10;;;24.50;99.90;;;;;;4982166;28;20214;-82
2023/09/21 12:22:05;;;;;;;0.10;0.10;;;24.50;99.90;;;;;;4979892;28;20214;-83
2023/09/21 12:24:34;;;;;;;0.10;0.10;;;24.60;99.90;;;;;;4980841;28;20176;-83
2023/09/21 12:27:01;;;;;;;0.10;0.10;;;24.90;99.90;;;;;;4978646;28;20204;-83
2023/09/21 12:29:27;;;;;;;0.10;0.10;;;25.10;99.90;;;;;;4978858;28;20211;-82
2023/09/21 12:31:53;;;;;;;0.10;0.10;;;25.20;99.90;;;;;;4978519;28;20211;-82
2023/09/21 12:34:19;;;;;;;0.10;0.10;;;25.30;99.90;;;;;;4972937;28;20176;-82
2023/09/21 12:36:48;;;;;;;0.10;0.10;;;25.30;99.90;;;;;;4979041;28;20275;-82
2023/09/21 12:39:14;;;;;;;0.10;0.10;;;25.20;99.90;;;;;;4978973;28;20211;-81
2023/09/21 12:41:43;;;;;;;0.10;0.10;;;25.20;99.90;;;;;;4974164;28;20194;-81
2023/09/21 12:44:10;;;;;;;0.10;0.10;;;25.00;99.90;;;;;;4979807;28;20184;-82
2023/09/21 12:46:37;;;;;;;0.10;0.10;;;24.90;99.90;;;;;;4977139;28;20219;-82
2023/09/21 12:49:04;;;;;;;0.10;0.10;;;24.60;99.90;;;;;;4979560;28;20222;-83
2023/09/21 12:51:30;;;;;;;0.10;0.10;;;24.60;99.90;;;;;;4988923;28;20215;-82